createdAt,value
2019-01-24T00:00:19.122Z,14.90
2019-01-24T00:02:47.715Z,17.73
2019-01-24T00:05:16.359Z,13.90
2019-01-24T00:07:44.993Z,15.93
2019-01-24T00:10:13.583Z,17.70
2019-01-24T00:12:42.171Z,15.40
2019-01-24T00:15:11.183Z,13.53
2019-01-24T00:17:39.911Z,13.90
2019-01-24T00:20:11.021Z,13.07
2019-01-24T00:22:39.603Z,8.37
2019-01-24T00:25:10.011Z,13.30
2019-01-24T00:27:38.675Z,15.70
2019-01-24T00:30:14.967Z,10.77
2019-01-24T00:32:43.627Z,18.87
2019-01-24T00:35:12.537Z,15.87
2019-01-24T00:37:41.196Z,13.00
2019-01-24T00:40:18.596Z,12.17
2019-01-24T00:42:47.188Z,14.27
2019-01-24T00:45:16.191Z,9.50
2019-01-24T00:47:44.844Z,13.50
2019-01-24T00:50:15.159Z,12.17
2019-01-24T00:52:43.827Z,16.03
2019-01-24T00:55:14.423Z,14.80
2019-01-24T00:57:43.160Z,12.23
2019-01-24T01:00:17.839Z,14.37
2019-01-24T01:02:46.871Z,14.90
2019-01-24T01:05:15.807Z,14.57
2019-01-24T01:07:44.472Z,12.57
2019-01-24T01:10:14.584Z,15.03
2019-01-24T01:12:43.410Z,13.90
2019-01-24T01:15:17.458Z,12.67
2019-01-24T01:17:46.184Z,12.73
2019-01-24T01:20:19.892Z,9.50
2019-01-24T01:22:48.550Z,11.87
2019-01-24T01:25:17.187Z,15.70
2019-01-24T01:27:45.927Z,14.30
2019-01-24T01:30:17.214Z,13.00
2019-01-24T01:32:45.803Z,11.27
2019-01-24T01:35:14.449Z,13.87
2019-01-24T01:37:43.152Z,13.73
2019-01-24T01:40:14.383Z,14.30
2019-01-24T01:42:43.019Z,15.23
2019-01-24T01:45:14.463Z,18.90
2019-01-24T01:47:43.308Z,15.30
2019-01-24T01:50:17.703Z,11.43
2019-01-24T01:52:46.336Z,11.77
2019-01-24T01:55:15.002Z,15.37
2019-01-24T01:57:43.563Z,13.97
2019-01-24T02:00:15.267Z,12.80
2019-01-24T02:02:43.839Z,10.80
2019-01-24T02:05:13.167Z,11.53
2019-01-24T02:07:41.731Z,13.70
2019-01-24T02:10:16.343Z,9.97
2019-01-24T02:12:50.952Z,15.90
2019-01-24T02:15:19.982Z,13.10
2019-01-24T02:17:48.724Z,9.30
2019-01-24T02:20:24.505Z,9.03
2019-01-24T02:22:53.160Z,20.43
2019-01-24T02:25:21.889Z,13.23
2019-01-24T02:27:50.519Z,7.97
2019-01-24T02:30:24.305Z,8.80
2019-01-24T02:32:52.939Z,10.90
2019-01-24T02:35:21.613Z,7.37
2019-01-24T02:37:50.307Z,8.50
2019-01-24T02:40:18.968Z,8.63
2019-01-24T02:42:47.599Z,7.17
2019-01-24T02:45:22.084Z,7.97
2019-01-24T02:47:50.655Z,7.67
2019-01-24T02:50:21.185Z,6.60
2019-01-24T02:52:49.895Z,7.10
2019-01-24T02:55:18.619Z,7.00
2019-01-24T02:57:47.258Z,11.27
2019-01-24T03:00:20.728Z,7.87
2019-01-24T03:02:49.729Z,9.23
2019-01-24T03:05:19.956Z,8.10
2019-01-24T03:07:49.260Z,7.97
2019-01-24T03:10:17.992Z,11.10
2019-01-24T03:12:46.713Z,14.60
2019-01-24T03:15:20.113Z,9.83
2019-01-24T03:17:48.748Z,7.73
2019-01-24T03:20:17.984Z,10.60
2019-01-24T03:22:46.924Z,9.63
2019-01-24T03:25:17.360Z,7.70
2019-01-24T03:27:46.010Z,10.30
2019-01-24T03:30:17.103Z,8.73
2019-01-24T03:32:45.679Z,11.77
2019-01-24T03:35:23.467Z,9.17
2019-01-24T03:37:52.111Z,10.83
2019-01-24T03:40:20.704Z,8.20
2019-01-24T03:42:49.345Z,11.40
2019-01-24T03:45:18.536Z,6.10
2019-01-24T03:47:47.183Z,13.93
2019-01-24T03:50:17.605Z,16.93
2019-01-24T03:52:46.262Z,13.80
2019-01-24T03:55:16.591Z,16.30
2019-01-24T03:57:45.235Z,19.60
2019-01-24T04:00:19.159Z,17.90
2019-01-24T04:02:47.872Z,11.53
2019-01-24T04:05:16.904Z,14.73
2019-01-24T04:07:45.539Z,18.73
2019-01-24T04:10:16.187Z,19.53
2019-01-24T04:12:45.022Z,17.20
2019-01-24T04:15:19.117Z,14.47
2019-01-24T04:17:47.836Z,20.20
2019-01-24T04:20:16.872Z,21.00
2019-01-24T04:22:45.523Z,19.93
2019-01-24T04:25:14.269Z,17.57
2019-01-24T04:27:42.840Z,14.63
2019-01-24T04:30:14.440Z,14.17
2019-01-24T04:32:43.018Z,16.17
2019-01-24T04:35:19.424Z,19.00
2019-01-24T04:37:42.542Z,20.03
2019-01-24T04:40:13.945Z,16.60
2019-01-24T04:42:42.595Z,14.77
2019-01-24T04:45:13.697Z,15.23
2019-01-24T04:47:42.341Z,17.40
2019-01-24T04:50:13.292Z,18.40
2019-01-24T04:52:41.939Z,17.57
2019-01-24T04:55:12.868Z,17.90
2019-01-24T04:57:41.518Z,17.77
2019-01-24T05:00:27.720Z,17.80
2019-01-24T05:02:56.360Z,15.20
2019-01-24T05:05:28.085Z,13.90
2019-01-24T05:07:55.244Z,17.50
2019-01-24T05:10:23.835Z,20.40
2019-01-24T05:12:52.405Z,18.80
2019-01-24T05:15:21.070Z,17.40
2019-01-24T05:17:49.645Z,19.37
2019-01-24T05:20:18.237Z,16.07
2019-01-24T05:22:46.877Z,16.97
2019-01-24T05:25:17.214Z,15.97
2019-01-24T05:27:45.775Z,18.00
2019-01-24T05:30:17.479Z,15.97
2019-01-24T05:32:46.055Z,18.63
2019-01-24T05:35:14.696Z,19.10
2019-01-24T05:37:43.568Z,18.67
2019-01-24T05:40:12.206Z,13.93
2019-01-24T05:42:40.879Z,13.07
2019-01-24T05:45:12.287Z,18.60
2019-01-24T05:47:40.893Z,18.27
2019-01-24T05:50:11.307Z,16.90
2019-01-24T05:52:39.896Z,13.50
2019-01-24T05:55:10.507Z,13.90
2019-01-24T05:57:39.118Z,15.53
2019-01-24T06:00:10.888Z,18.53
2019-01-24T06:02:39.589Z,16.87
2019-01-24T06:05:10.598Z,14.57
2019-01-24T06:07:39.190Z,15.57
2019-01-24T06:10:13.584Z,14.47
2019-01-24T06:12:42.181Z,15.17
2019-01-24T06:15:13.465Z,15.13
2019-01-24T06:17:42.064Z,13.23
2019-01-24T06:20:11.380Z,11.93
2019-01-24T06:22:39.972Z,14.10
2019-01-24T06:25:11.513Z,15.70
2019-01-24T06:27:40.156Z,12.90
2019-01-24T06:30:14.731Z,14.20
2019-01-24T06:32:43.325Z,15.30
2019-01-24T06:35:12.036Z,17.73
2019-01-24T06:37:40.635Z,11.70
2019-01-24T06:40:11.850Z,13.63
2019-01-24T06:42:40.440Z,15.93
2019-01-24T06:45:12.452Z,13.40
2019-01-24T06:47:41.050Z,13.73
2019-01-24T06:50:11.956Z,16.63
2019-01-24T06:52:40.624Z,14.43
2019-01-24T06:55:12.300Z,12.87
2019-01-24T06:57:40.911Z,12.67
2019-01-24T07:00:17.811Z,13.63
2019-01-24T07:02:46.401Z,14.43
2019-01-24T07:05:15.942Z,12.37
2019-01-24T07:07:44.680Z,12.53
2019-01-24T07:10:15.496Z,10.80
2019-01-24T07:12:44.096Z,15.30
2019-01-24T07:15:15.373Z,17.53
2019-01-24T07:17:43.960Z,15.37
2019-01-24T07:20:14.471Z,12.97
2019-01-24T07:22:43.133Z,13.23
2019-01-24T07:25:20.251Z,12.20
2019-01-24T07:27:48.840Z,15.27
2019-01-24T07:30:19.251Z,13.27
2019-01-24T07:32:47.918Z,13.30
2019-01-24T07:35:18.029Z,15.40
2019-01-24T07:37:46.696Z,14.10
2019-01-24T07:40:17.100Z,16.27
2019-01-24T07:42:45.762Z,17.10
2019-01-24T07:45:35.428Z,16.30
2019-01-24T07:48:04.192Z,18.87
2019-01-24T07:50:32.769Z,15.97
2019-01-24T07:53:01.511Z,13.43
2019-01-24T07:55:30.069Z,14.27
2019-01-24T07:57:58.664Z,18.80
2019-01-24T08:00:31.040Z,16.53
2019-01-24T08:02:59.637Z,18.33
2019-01-24T08:05:30.244Z,18.37
2019-01-24T08:07:58.840Z,18.97
2019-01-24T08:10:27.476Z,17.33
2019-01-24T08:12:56.077Z,17.43
2019-01-24T08:15:25.285Z,15.37
2019-01-24T08:17:53.875Z,14.53
2019-01-24T08:20:27.477Z,17.67
2019-01-24T08:22:56.747Z,14.13
2019-01-24T08:25:25.379Z,13.73
2019-01-24T08:27:53.970Z,14.03
2019-01-24T08:30:28.176Z,11.37
2019-01-24T08:32:56.848Z,13.37
2019-01-24T08:35:25.557Z,16.23
2019-01-24T08:37:54.159Z,14.23
2019-01-24T08:40:23.970Z,14.40
2019-01-24T08:42:52.933Z,14.63
2019-01-24T08:45:21.503Z,14.73
2019-01-24T08:47:50.440Z,17.27
2019-01-24T08:50:21.619Z,15.17
2019-01-24T08:52:50.292Z,16.70
2019-01-24T08:55:27.321Z,12.70
2019-01-24T08:57:55.917Z,13.13
2019-01-24T09:00:24.562Z,14.43
2019-01-24T09:02:53.282Z,16.07
2019-01-24T09:05:21.929Z,17.57
2019-01-24T09:07:50.525Z,17.57
2019-01-24T09:10:28.128Z,18.23
2019-01-24T09:12:56.864Z,17.13
2019-01-24T09:15:26.076Z,17.27
2019-01-24T09:17:54.670Z,14.90
2019-01-24T09:20:23.515Z,15.00
2019-01-24T09:22:55.306Z,17.63
2019-01-24T09:25:22.400Z,16.27
2019-01-24T09:27:50.992Z,18.10
2019-01-24T09:30:22.376Z,17.50
2019-01-24T09:32:50.974Z,16.87
2019-01-24T09:35:19.679Z,17.43
2019-01-24T09:37:48.348Z,16.97
2019-01-24T09:40:18.959Z,17.33
2019-01-24T09:42:47.563Z,15.33
2019-01-24T09:45:19.152Z,17.27
2019-01-24T09:47:47.815Z,16.13
2019-01-24T09:50:21.840Z,20.40
2019-01-24T09:52:50.500Z,15.03
2019-01-24T09:55:19.140Z,17.90
2019-01-24T09:57:47.745Z,19.37
2019-01-24T10:00:31.124Z,17.37
2019-01-24T10:03:00.053Z,16.90
2019-01-24T10:05:28.624Z,16.33
2019-01-24T10:07:57.217Z,17.07
2019-01-24T10:10:27.528Z,16.60
2019-01-24T10:12:57.068Z,17.23
2019-01-24T10:15:25.881Z,16.17
2019-01-24T10:17:54.539Z,15.80
2019-01-24T10:20:24.951Z,17.00
2019-01-24T10:22:53.622Z,17.50
2019-01-24T10:25:33.820Z,17.17
2019-01-24T10:28:02.483Z,15.30
2019-01-24T10:30:31.137Z,18.53
2019-01-24T10:32:59.795Z,15.63
2019-01-24T10:35:28.365Z,18.03
2019-01-24T10:37:56.956Z,17.77
2019-01-24T10:40:33.237Z,17.77
2019-01-24T10:43:01.903Z,14.80
2019-01-24T10:45:30.479Z,15.73
2019-01-24T10:47:59.345Z,16.83
2019-01-24T10:50:28.945Z,17.83
2019-01-24T10:52:57.535Z,19.97
2019-01-24T10:55:27.415Z,14.33
2019-01-24T10:57:58.156Z,15.67
2019-01-24T11:00:32.611Z,16.33
2019-01-24T11:03:02.748Z,18.67
2019-01-24T11:05:31.393Z,20.87
2019-01-24T11:07:59.985Z,18.90
2019-01-24T11:10:28.623Z,18.90
2019-01-24T11:12:57.215Z,19.57
2019-01-24T11:15:26.227Z,20.43
2019-01-24T11:17:54.801Z,18.70
2019-01-24T11:20:23.535Z,19.70
2019-01-24T11:22:52.172Z,16.33
2019-01-24T11:25:24.928Z,14.77
2019-01-24T11:27:53.501Z,16.83
2019-01-24T11:30:29.806Z,19.40
2019-01-24T11:32:58.544Z,20.33
2019-01-24T11:35:33.021Z,18.80
2019-01-24T11:38:01.594Z,18.57
2019-01-24T11:40:30.260Z,17.60
2019-01-24T11:42:58.900Z,18.20
2019-01-24T11:45:33.227Z,17.63
2019-01-24T11:48:01.875Z,16.90
2019-01-24T11:50:30.483Z,15.63
2019-01-24T11:52:59.044Z,17.20
2019-01-24T11:55:27.708Z,16.37
2019-01-24T11:57:56.284Z,20.77
2019-01-24T12:00:34.719Z,18.27
2019-01-24T12:03:03.360Z,17.37
2019-01-24T12:05:31.956Z,14.30
2019-01-24T12:08:00.532Z,14.50
2019-01-24T12:10:30.374Z,16.93
2019-01-24T12:12:59.009Z,16.47
2019-01-24T12:15:29.449Z,18.33
2019-01-24T12:17:58.038Z,16.60
2019-01-24T12:20:26.769Z,14.60
2019-01-24T12:22:55.718Z,15.03
2019-01-24T12:25:24.376Z,15.37
2019-01-24T12:27:53.219Z,19.43
2019-01-24T12:30:24.052Z,16.90
2019-01-24T12:32:52.698Z,19.00
2019-01-24T12:35:21.360Z,18.10
2019-01-24T12:37:49.935Z,17.03
2019-01-24T12:40:18.530Z,20.67
2019-01-24T12:42:47.108Z,18.30
2019-01-24T12:45:24.392Z,20.47
2019-01-24T12:47:52.968Z,16.03
2019-01-24T12:50:21.633Z,14.40
2019-01-24T12:52:50.208Z,16.50
2019-01-24T12:55:18.884Z,18.60
2019-01-24T12:57:47.454Z,17.23
2019-01-24T13:00:23.900Z,18.23
2019-01-24T13:02:52.663Z,17.70
2019-01-24T13:05:21.420Z,21.30
2019-01-24T13:07:49.992Z,20.97
2019-01-24T13:10:21.393Z,19.03
2019-01-24T13:12:50.337Z,15.67
2019-01-24T13:15:21.472Z,16.83
2019-01-24T13:17:50.047Z,18.50
2019-01-24T13:20:18.708Z,12.87
2019-01-24T13:22:47.283Z,12.43
2019-01-24T13:25:18.420Z,17.57
2019-01-24T13:27:47.038Z,19.90
2019-01-24T13:30:21.353Z,16.57
2019-01-24T13:32:49.992Z,19.93
2019-01-24T13:35:18.724Z,15.13
2019-01-24T13:37:47.365Z,14.53
2019-01-24T13:40:18.300Z,16.97
2019-01-24T13:42:46.876Z,13.23
2019-01-24T13:45:18.280Z,13.80
2019-01-24T13:47:47.195Z,17.00
2019-01-24T13:50:17.937Z,18.87
2019-01-24T13:52:46.579Z,15.63
2019-01-24T13:55:15.318Z,13.47
2019-01-24T13:57:43.963Z,15.27
2019-01-24T14:00:24.491Z,13.33
2019-01-24T14:03:02.413Z,22.47
2019-01-24T14:05:31.009Z,16.70
2019-01-24T14:07:59.583Z,16.83
2019-01-24T14:10:28.184Z,15.37
2019-01-24T14:12:56.759Z,19.47
2019-01-24T14:15:25.417Z,17.03
2019-01-24T14:17:53.996Z,19.73
2019-01-24T14:20:22.928Z,19.90
2019-01-24T14:22:51.635Z,16.80
2019-01-24T14:25:23.607Z,20.07
2019-01-24T14:27:52.308Z,18.53
2019-01-24T14:30:25.448Z,16.73
2019-01-24T14:32:54.558Z,15.97
2019-01-24T14:35:23.292Z,15.93
2019-01-24T14:37:52.080Z,17.63
2019-01-24T14:40:20.812Z,16.93
2019-01-24T14:42:49.857Z,17.80
2019-01-24T14:45:24.223Z,20.40
2019-01-24T14:47:53.127Z,15.20
2019-01-24T14:50:27.559Z,15.00
2019-01-24T14:52:56.768Z,14.80
2019-01-24T14:55:25.746Z,14.27
2019-01-24T14:57:54.612Z,16.23
2019-01-24T15:00:26.512Z,11.13
2019-01-24T15:02:55.420Z,13.23
2019-01-24T15:05:24.813Z,13.60
2019-01-24T15:07:53.728Z,13.97
2019-01-24T15:10:22.786Z,14.17
2019-01-24T15:12:53.651Z,13.53
2019-01-24T15:15:23.588Z,15.40
2019-01-24T15:17:52.640Z,14.90
2019-01-24T15:20:22.194Z,16.93
2019-01-24T15:22:51.004Z,11.87
2019-01-24T15:25:22.312Z,11.80
2019-01-24T15:27:51.232Z,12.73
2019-01-24T15:30:25.383Z,15.87
2019-01-24T15:32:54.300Z,13.57
2019-01-24T15:35:23.556Z,17.03
2019-01-24T15:37:54.728Z,16.47
2019-01-24T15:40:26.737Z,21.00
2019-01-24T15:42:55.652Z,15.03
2019-01-24T15:45:24.687Z,16.47
2019-01-24T15:47:53.712Z,12.43
2019-01-24T15:50:23.955Z,14.80
2019-01-24T15:52:52.863Z,15.47
2019-01-24T15:55:21.928Z,17.27
2019-01-24T15:57:50.848Z,16.77
2019-01-24T16:00:22.460Z,15.73
2019-01-24T16:02:52.029Z,16.90
2019-01-24T16:05:21.191Z,17.73
2019-01-24T16:07:50.336Z,14.60
2019-01-24T16:10:21.660Z,15.13
2019-01-24T16:12:50.989Z,13.87
2019-01-24T16:15:28.678Z,18.30
2019-01-24T16:17:58.262Z,16.63
2019-01-24T16:20:29.105Z,15.50
2019-01-24T16:22:58.244Z,17.20
2019-01-24T16:25:29.577Z,19.53
2019-01-24T16:27:58.489Z,17.87
2019-01-24T16:30:29.871Z,20.23
2019-01-24T16:32:59.187Z,13.93
2019-01-24T16:35:28.756Z,19.70
2019-01-24T16:37:58.201Z,12.73
2019-01-24T16:40:28.832Z,13.20
2019-01-24T16:42:58.270Z,16.80
2019-01-24T16:45:30.776Z,13.43
2019-01-24T16:47:59.695Z,14.10
2019-01-24T16:50:29.033Z,10.80
2019-01-24T16:52:58.102Z,11.53
2019-01-24T16:55:27.420Z,13.10
2019-01-24T16:57:56.713Z,12.40
2019-01-24T17:00:31.548Z,18.70
2019-01-24T17:03:01.453Z,14.00
2019-01-24T17:05:31.218Z,14.73
2019-01-24T17:08:00.775Z,15.20
2019-01-24T17:10:30.491Z,19.67
2019-01-24T17:12:59.884Z,16.27
2019-01-24T17:15:29.327Z,14.67
2019-01-24T17:17:58.668Z,15.87
2019-01-24T17:20:29.509Z,18.63
2019-01-24T17:22:59.651Z,19.97
2019-01-24T17:25:32.695Z,22.20
2019-01-24T17:28:02.543Z,20.83
2019-01-24T17:30:34.948Z,21.17
2019-01-24T17:33:06.246Z,22.53
2019-01-24T17:35:35.908Z,21.03
2019-01-24T17:38:05.505Z,20.60
2019-01-24T17:40:35.907Z,21.17
2019-01-24T17:43:06.445Z,20.43
2019-01-24T17:45:35.575Z,23.43
2019-01-24T17:48:06.167Z,22.03
2019-01-24T17:50:35.556Z,22.77
2019-01-24T17:53:05.008Z,17.90
2019-01-24T17:55:36.720Z,16.20
2019-01-24T17:58:07.712Z,17.03
2019-01-24T18:00:38.796Z,17.17
2019-01-24T18:03:08.932Z,13.33
2019-01-24T18:05:38.349Z,17.37
2019-01-24T18:08:08.395Z,16.57
2019-01-24T18:10:38.469Z,19.57
2019-01-24T18:13:08.366Z,19.17
2019-01-24T18:15:38.792Z,16.63
2019-01-24T18:18:11.052Z,15.60
2019-01-24T18:20:41.292Z,12.87
2019-01-24T18:23:11.928Z,12.03
2019-01-24T18:25:42.131Z,12.93
2019-01-24T18:28:12.894Z,12.37
2019-01-24T18:30:43.387Z,12.73
2019-01-24T18:33:13.764Z,10.90
2019-01-24T18:35:43.639Z,11.43
2019-01-24T18:38:13.777Z,13.70
2019-01-24T18:40:43.876Z,12.93
2019-01-24T18:43:16.247Z,11.70
2019-01-24T18:45:51.383Z,15.47
2019-01-24T18:48:21.624Z,11.20
2019-01-24T18:50:51.732Z,13.00
2019-01-24T18:53:21.972Z,14.53
2019-01-24T18:55:52.180Z,11.10
2019-01-24T18:58:22.623Z,12.50
2019-01-24T19:00:53.124Z,17.37
2019-01-24T19:03:23.375Z,10.00
2019-01-24T19:05:53.530Z,11.43
2019-01-24T19:08:23.778Z,7.30
2019-01-24T19:10:53.870Z,8.97
2019-01-24T19:13:24.056Z,12.50
2019-01-24T19:15:53.848Z,11.13
2019-01-24T19:18:24.204Z,8.63
2019-01-24T19:20:54.696Z,9.57
2019-01-24T19:23:25.353Z,10.43
2019-01-24T19:25:56.201Z,12.17
2019-01-24T19:28:27.025Z,21.43
2019-01-24T19:30:57.736Z,12.73
2019-01-24T19:33:28.595Z,11.90
2019-01-24T19:36:00.431Z,13.83
2019-01-24T19:38:37.540Z,10.63
2019-01-24T19:41:08.044Z,14.53
2019-01-24T19:43:38.804Z,13.30
2019-01-24T19:46:09.415Z,12.13
2019-01-24T19:48:39.860Z,11.63
2019-01-24T19:51:10.764Z,9.60
2019-01-24T19:53:41.424Z,21.23
2019-01-24T19:56:11.736Z,17.53
2019-01-24T19:58:42.401Z,15.13
2019-01-24T20:01:12.891Z,17.47
2019-01-24T20:03:43.449Z,13.90
2019-01-24T20:06:13.956Z,12.60
2019-01-24T20:08:44.609Z,13.67
2019-01-24T20:11:14.932Z,16.77
2019-01-24T20:13:45.251Z,10.37
2019-01-24T20:16:15.474Z,16.40
2019-01-24T20:18:46.324Z,16.93
2019-01-24T20:21:16.985Z,17.13
2019-01-24T20:23:47.276Z,16.50
2019-01-24T20:26:17.675Z,15.73
2019-01-24T20:28:47.934Z,17.80
2019-01-24T20:31:18.124Z,18.60
2019-01-24T20:33:48.261Z,13.33
2019-01-24T20:36:18.563Z,13.10
2019-01-24T20:38:48.809Z,14.17
2019-01-24T20:41:19.624Z,12.50
2019-01-24T20:43:49.761Z,16.53
2019-01-24T20:46:20.169Z,19.67
2019-01-24T20:48:50.615Z,22.63
2019-01-24T20:51:20.868Z,17.03
2019-01-24T20:53:51.290Z,18.27
2019-01-24T20:56:21.567Z,16.20
2019-01-24T20:58:51.907Z,12.70
2019-01-24T21:01:22.120Z,13.03
2019-01-24T21:03:55.478Z,14.20
2019-01-24T21:06:23.890Z,13.67
2019-01-24T21:08:54.133Z,16.50
2019-01-24T21:11:23.722Z,11.00
2019-01-24T21:13:53.861Z,10.03
2019-01-24T21:16:23.957Z,15.23
2019-01-24T21:18:53.687Z,12.67
2019-01-24T21:21:23.079Z,11.60
2019-01-24T21:23:51.809Z,13.97
2019-01-24T21:26:20.516Z,12.60
2019-01-24T21:28:50.275Z,18.43
2019-01-24T21:31:19.187Z,15.30
2019-01-24T21:33:48.983Z,14.83
2019-01-24T21:36:18.127Z,16.93
2019-01-24T21:38:47.288Z,16.90
2019-01-24T21:41:16.409Z,20.83
2019-01-24T21:43:45.484Z,18.23
2019-01-24T21:46:14.472Z,16.30
2019-01-24T21:48:43.404Z,13.33
2019-01-24T21:51:12.120Z,15.03
2019-01-24T21:53:41.850Z,16.13
2019-01-24T21:56:10.759Z,14.00
2019-01-24T21:58:39.566Z,11.40
2019-01-24T22:01:08.275Z,15.30
2019-01-24T22:03:37.012Z,12.07
2019-01-24T22:06:05.723Z,11.00
2019-01-24T22:08:34.447Z,11.77
2019-01-24T22:11:03.023Z,17.47
2019-01-24T22:13:31.612Z,17.73
2019-01-24T22:16:00.254Z,14.47
2019-01-24T22:18:28.844Z,13.50
2019-01-24T22:20:57.411Z,15.43
2019-01-24T22:23:26.003Z,17.53
2019-01-24T22:25:54.576Z,13.13
2019-01-24T22:28:23.169Z,17.60
2019-01-24T22:30:52.717Z,14.90
2019-01-24T22:33:21.324Z,19.33
2019-01-24T22:35:49.892Z,18.13
2019-01-24T22:38:18.479Z,19.40
2019-01-24T22:40:47.052Z,22.43
2019-01-24T22:43:15.704Z,21.20
2019-01-24T22:45:44.298Z,22.50
2019-01-24T22:48:12.933Z,18.90
2019-01-24T22:50:41.536Z,19.37
2019-01-24T22:53:10.099Z,15.70
2019-01-24T22:55:38.711Z,19.20
2019-01-24T22:58:07.602Z,21.03
2019-01-24T23:00:53.715Z,18.10
2019-01-24T23:03:37.252Z,20.87
2019-01-24T23:06:06.064Z,16.23
2019-01-24T23:08:34.792Z,14.63
2019-01-24T23:11:03.431Z,9.13
2019-01-24T23:13:32.005Z,11.87
2019-01-24T23:16:00.597Z,10.53
2019-01-24T23:18:29.168Z,11.63
2019-01-24T23:20:57.764Z,12.50
2019-01-24T23:23:26.336Z,10.67
2019-01-24T23:25:54.928Z,11.73
2019-01-24T23:28:23.507Z,12.03
2019-01-24T23:30:52.096Z,10.40
2019-01-24T23:33:20.693Z,7.27
2019-01-24T23:35:49.286Z,9.30
2019-01-24T23:38:17.932Z,9.97
2019-01-24T23:40:46.516Z,6.60
2019-01-24T23:43:15.080Z,7.90
2019-01-24T23:45:43.680Z,7.00
2019-01-24T23:48:12.254Z,8.57
2019-01-24T23:50:40.851Z,7.27
2019-01-24T23:53:09.412Z,8.17
2019-01-24T23:55:38.072Z,11.10
2019-01-24T23:58:06.710Z,7.70
